Time;durP1;ratioP1;P1;durP2;ratioP2;P2;SDS_P1;SDS_P2;PMS_P1;PMS_P2;Temp;Humidity;BMP_temperature;BMP_pressure;BME280_temperature;BME280_humidity;BME280_pressure;Samples;Min_cycle;Max_cycle;Signal;HPM_P1;HPM_P2
2021/01/14 04:02:57;;;;;;;8.75;5.00;;;;;;;-4.60;100.00;99192.92;1743506;78;21049;-78
2021/01/14 04:05:26;;;;;;;8.83;5.15;;;;;;;-4.58;100.00;99201.23;1736905;80;21498;-77
2021/01/14 04:07:54;;;;;;;9.40;4.90;;;;;;;-4.58;100.00;99203.34;1739176;80;21182;-75
2021/01/14 04:10:23;;;;;;;7.72;4.80;;;;;;;-4.56;100.00;99218.48;1691609;82;20947;-78
2021/01/14 04:12:53;;;;;;;9.13;4.92;;;;;;;-4.54;100.00;99231.91;1724182;80;20958;-79
2021/01/14 04:15:21;;;;;;;7.40;4.40;;;;;;;-4.53;100.00;99236.06;1721810;80;21160;-78
2021/01/14 04:17:50;;;;;;;10.20;5.33;;;;;;;-4.53;100.00;99236.87;1746973;81;21170;-78
2021/01/14 04:20:19;;;;;;;8.08;4.70;;;;;;;-4.51;100.00;99250.73;1733997;81;21716;-66
2021/01/14 04:22:50;;;;;;;7.22;4.45;;;;;;;-4.51;100.00;99240.56;1744205;81;20994;-81
2021/01/14 04:25:18;;;;;;;8.90;5.25;;;;;;;-4.50;100.00;99240.47;1733591;81;21180;-74
2021/01/14 04:27:46;;;;;;;8.08;4.50;;;;;;;-4.49;100.00;99232.37;1742723;81;21060;-78
2021/01/14 04:30:15;;;;;;;7.40;4.90;;;;;;;-4.49;100.00;99231.09;1742545;81;22503;-65
2021/01/14 04:32:44;;;;;;;8.05;5.08;;;;;;;-4.48;100.00;99218.72;1733985;81;21137;-75
2021/01/14 04:35:12;;;;;;;6.90;4.33;;;;;;;-4.46;100.00;99217.70;1728324;82;22450;-77
2021/01/14 04:37:42;;;;;;;8.38;5.47;;;;;;;-4.45;100.00;99218.50;1756982;80;21143;-76
2021/01/14 04:40:11;;;;;;;9.73;5.50;;;;;;;-4.45;100.00;99223.13;1755644;80;21185;-69
2021/01/14 04:42:39;;;;;;;9.83;5.72;;;;;;;-4.45;100.00;99228.67;1747983;80;21206;-74
2021/01/14 04:45:11;;;;;;;7.05;4.72;;;;;;;-4.45;100.00;99233.30;1748076;80;21251;-79
2021/01/14 04:47:39;;;;;;;;;;;;;;;-4.42;100.00;99237.36;1752136;80;21148;-82
2021/01/14 04:50:08;;;;;;;8.85;4.87;;;;;;;-4.43;100.00;99242.11;1751234;80;20278;-81
2021/01/14 04:52:37;;;;;;;7.28;4.60;;;;;;;-4.45;100.00;99240.13;1747188;80;21109;-76
2021/01/14 04:55:07;;;;;;;7.97;4.28;;;;;;;-4.46;100.00;99234.69;1748983;80;21220;-79
2021/01/14 04:57:35;;;;;;;8.23;4.75;;;;;;;-4.46;100.00;99239.31;1747337;80;21001;-79
2021/01/14 05:00:05;;;;;;;9.10;5.50;;;;;;;-4.45;100.00;99243.94;1749672;80;21148;-82
2021/01/14 05:02:34;;;;;;;10.13;4.70;;;;;;;-4.44;100.00;99264.16;1732222;80;20967;-75
2021/01/14 05:05:04;;;;;;;5.97;3.55;;;;;;;-4.42;100.00;99275.05;1731690;82;21666;-80
2021/01/14 05:07:32;;;;;;;7.92;4.33;;;;;;;-4.40;100.00;99278.73;1722176;82;21213;-81
2021/01/14 05:10:04;;;;;;;6.60;3.95;;;;;;;-4.38;100.00;99276.91;1728180;82;21133;-78
2021/01/14 05:12:34;;;;;;;8.63;4.80;;;;;;;-4.38;100.00;99261.64;1722588;82;20985;-66
2021/01/14 05:15:02;;;;;;;10.25;4.75;;;;;;;-4.38;100.00;99259.10;1724122;82;20975;-75
2021/01/14 05:17:30;;;;;;;8.00;4.90;;;;;;;-4.38;100.00;99253.20;1722504;82;21135;-73
2021/01/14 05:19:59;;;;;;;7.90;4.97;;;;;;;-4.38;100.00;99260.38;1722720;82;21385;-73
2021/01/14 05:22:28;;;;;;;9.18;4.92;;;;;;;-4.39;100.00;99263.84;1725075;82;21698;-65
2021/01/14 05:25:07;;;;;;;7.95;4.40;;;;;;;-4.38;100.00;99254.02;1726686;82;21173;-70
2021/01/14 05:27:36;;;;;;;8.48;5.10;;;;;;;-4.36;100.00;99266.14;1724523;82;21675;-69
2021/01/14 05:30:09;;;;;;;7.85;4.87;;;;;;;-4.35;100.00;99255.06;1727878;82;21117;-69
2021/01/14 05:32:43;;;;;;;7.80;4.37;;;;;;;-4.35;100.00;99269.05;1724732;82;21342;-69
2021/01/14 05:35:14;;;;;;;10.78;5.20;;;;;;;-4.36;100.00;99275.05;1724887;82;21535;-72
2021/01/14 05:37:43;;;;;;;9.58;5.50;;;;;;;-4.35;100.00;99280.97;1727211;82;21497;-73
2021/01/14 05:40:14;;;;;;;8.50;5.05;;;;;;;-4.32;100.00;99284.54;1724949;82;21133;-72
2021/01/14 05:42:42;;;;;;;7.67;3.83;;;;;;;-4.30;100.00;99282.23;1724252;82;21272;-74
2021/01/14 05:45:22;;;;;;;8.15;5.05;;;;;;;-4.27;100.00;99269.77;1727132;82;21201;-72
2021/01/14 05:47:51;;;;;;;11.63;4.85;;;;;;;-4.26;100.00;99273.45;1724073;82;21585;-64
2021/01/14 05:50:28;;;;;;;7.80;4.40;;;;;;;-4.25;100.00;99281.44;1725404;82;21755;-75
2021/01/14 05:52:56;;;;;;;6.17;3.87;;;;;;;-4.25;100.00;99277.62;1724698;82;21010;-75
2021/01/14 05:55:28;;;;;;;6.78;4.10;;;;;;;-4.25;100.00;99295.42;1725814;82;21138;-73
2021/01/14 06:00:43;;;;;;;7.03;4.43;;;;;;;-4.21;100.00;99282.83;1832045;77;22744;-74
2021/01/14 06:03:25;;;;;;;8.15;4.45;;;;;;;-4.25;100.00;99284.44;1803772;79;20983;-69
2021/01/14 06:06:09;;;;;;;6.57;3.93;;;;;;;-4.21;100.00;99285.84;1802906;78;22835;-71
2021/01/14 06:08:37;;;;;;;7.80;4.30;;;;;;;-4.25;100.00;99299.70;1789762;79;20963;-71
2021/01/14 06:11:21;;;;;;;7.47;4.85;;;;;;;-4.25;100.00;99299.70;1778327;79;21557;-67
2021/01/14 06:13:49;;;;;;;8.03;4.47;;;;;;;-4.25;100.00;99300.52;1770003;79;20990;-74
2021/01/14 06:16:18;;;;;;;7.95;4.70;;;;;;;-4.22;100.00;99298.22;1792124;79;21081;-73
2021/01/14 06:19:07;;;;;;;8.55;4.33;;;;;;;-4.20;100.00;99290.83;1782369;79;21035;-70
2021/01/14 06:21:46;;;;;;;9.05;4.97;;;;;;;-4.19;100.00;99293.72;1732225;82;20978;-72
2021/01/14 06:27:15;;;;;;;9.67;4.67;;;;;;;-4.12;100.00;99298.37;1820271;77;22864;-72
2021/01/14 06:29:46;;;;;;;8.30;4.17;;;;;;;-4.14;100.00;99308.64;1798704;79;21630;-66
2021/01/14 06:32:18;;;;;;;8.40;4.22;;;;;;;-4.12;100.00;99301.72;1739627;81;21287;-72
2021/01/14 06:34:51;;;;;;;11.00;6.12;;;;;;;-4.09;100.00;99301.94;1763747;80;21066;-71
2021/01/14 06:37:25;;;;;;;8.18;5.22;;;;;;;-4.07;100.00;99306.46;1758512;80;21334;-72
2021/01/14 06:39:58;;;;;;;9.08;4.70;;;;;;;-4.05;100.00;99305.44;1734212;81;21015;-72
2021/01/14 06:42:35;;;;;;;11.05;5.67;;;;;;;-4.03;100.00;99298.95;1760821;80;21117;-71
2021/01/14 06:45:08;;;;;;;12.28;4.80;;;;;;;-4.02;100.00;99300.56;1765473;80;21369;-71
2021/01/14 06:47:42;;;;;;;9.00;5.15;;;;;;;-4.01;100.00;99314.93;1762655;80;21030;-71
2021/01/14 06:50:25;;;;;;;9.60;4.97;;;;;;;-4.01;100.00;99318.75;1761395;80;21193;-72
2021/01/14 06:53:04;;;;;;;10.50;5.22;;;;;;;-4.00;100.00;99310.98;1742190;80;21553;-71
2021/01/14 06:55:36;;;;;;;9.73;5.08;;;;;;;-3.98;100.00;99308.31;1755818;80;21557;-72
2021/01/14 06:58:15;;;;;;;11.68;6.12;;;;;;;-3.94;100.00;99312.25;1760454;80;21128;-72
2021/01/14 07:00:45;;;;;;;11.68;6.42;;;;;;;-3.90;100.00;99308.58;1746570;81;21013;-72
2021/01/14 07:05:59;;;;;;;9.27;5.63;;;;;;;-3.82;100.00;99307.55;1816630;77;22703;-70
2021/01/14 07:08:55;;;;;;;10.08;5.78;;;;;;;-3.81;100.00;99304.06;1790198;79;20984;-70
2021/01/14 07:11:24;;;;;;;11.10;6.12;;;;;;;-3.77;100.00;99302.09;1796503;78;21350;-71
2021/01/14 07:13:53;;;;;;;10.48;6.15;;;;;;;-3.73;100.00;99300.94;1741172;82;21070;-72
2021/01/14 07:16:23;;;;;;;11.95;6.10;;;;;;;-3.70;100.00;99307.08;1732748;82;21507;-66
2021/01/14 07:18:52;;;;;;;9.60;5.17;;;;;;;-3.64;100.00;99307.07;1741696;81;20965;-74
2021/01/14 07:21:43;;;;;;;11.73;5.55;;;;;;;-3.60;100.00;99309.73;1754045;80;21051;-70
2021/01/14 07:24:26;;;;;;;10.18;6.30;;;;;;;-3.54;100.00;99308.00;1735459;80;22780;-70
2021/01/14 07:26:58;;;;;;;8.95;4.87;;;;;;;-3.51;100.00;99309.05;1743953;80;21188;-71
2021/01/14 07:29:29;;;;;;;10.30;6.10;;;;;;;-3.47;100.00;99309.16;1757086;80;21028;-73
2021/01/14 07:31:59;;;;;;;57.10;28.80;;;;;;;-3.46;100.00;99310.77;1761931;80;21572;-73
2021/01/14 07:34:43;;;;;;;36.35;20.02;;;;;;;-3.42;100.00;99322.35;1750015;80;21537;-73
2021/01/14 07:37:17;;;;;;;47.58;23.30;;;;;;;-3.41;100.00;99323.96;1725068;82;22531;-73
2021/01/14 07:39:58;;;;;;;13.40;6.87;;;;;;;-3.38;100.00;99330.58;1732100;81;21167;-64
2021/01/14 07:42:31;;;;;;;14.38;8.65;;;;;;;-3.37;100.00;99335.57;1741178;81;21137;-74
2021/01/14 07:45:05;;;;;;;12.55;7.33;;;;;;;-3.35;100.00;99332.42;1742117;81;21228;-75
2021/01/14 07:47:37;;;;;;;17.48;12.20;;;;;;;-3.34;100.00;99332.77;1735553;81;21529;-76
2021/01/14 07:50:24;;;;;;;12.70;8.45;;;;;;;-3.33;100.00;99339.50;1742714;81;21382;-77
2021/01/14 07:52:56;;;;;;;10.43;6.67;;;;;;;-3.31;100.00;99352.92;1736086;81;21205;-74
2021/01/14 07:55:31;;;;;;;25.77;14.83;;;;;;;-3.27;100.00;99347.94;1737236;81;21655;-74
2021/01/14 07:58:21;;;;;;;16.45;9.50;;;;;;;-3.23;100.00;99359.52;1740225;81;21192;-72
2021/01/14 08:01:09;;;;;;;12.07;6.05;;;;;;;-3.17;100.00;99367.64;1738027;81;21617;-66
2021/01/14 08:03:42;;;;;;;9.40;5.53;;;;;;;-3.14;100.00;99367.38;1737771;81;21386;-71
2021/01/14 08:06:35;;;;;;;8.28;4.83;;;;;;;-3.15;100.00;99374.22;1725576;82;21228;-71
2021/01/14 08:09:10;;;;;;;10.18;5.80;;;;;;;-3.14;100.00;99365.67;1714800;81;21058;-71
2021/01/14 08:11:44;;;;;;;9.18;5.75;;;;;;;-3.12;100.00;99375.27;1711791;82;21220;-69
2021/01/14 08:14:22;;;;;;;11.63;5.45;;;;;;;-3.08;100.00;99386.85;1713028;82;22490;-71
2021/01/14 08:16:50;;;;;;;9.20;4.87;;;;;;;-3.07;100.00;99387.66;1722057;82;21254;-70
2021/01/14 08:19:32;;;;;;;10.93;5.95;;;;;;;-3.08;100.00;99391.14;1712954;82;21164;-72
2021/01/14 08:22:07;;;;;;;13.40;7.85;;;;;;;-3.06;100.00;99385.48;1728678;81;21100;-71
2021/01/14 08:25:02;;;;;;;10.23;6.37;;;;;;;-3.04;100.00;99387.42;1779851;79;21142;-72
2021/01/14 08:27:36;;;;;;;15.40;8.63;;;;;;;-3.00;100.00;99388.81;1776372;79;21018;-69
2021/01/14 08:30:14;;;;;;;14.53;7.78;;;;;;;-2.96;100.00;99386.38;1773219;79;21354;-72
2021/01/14 08:33:04;;;;;;;9.58;5.25;;;;;;;-2.91;100.00;99389.39;1773435;79;21027;-71
2021/01/14 08:35:38;;;;;;;10.63;6.17;;;;;;;-2.89;100.00;99389.27;1770177;79;21012;-69
2021/01/14 08:38:13;;;;;;;10.00;6.25;;;;;;;-2.89;100.00;99388.80;1774557;79;21006;-71
2021/01/14 08:40:42;;;;;;;10.08;5.65;;;;;;;-2.91;100.00;99390.67;1765495;79;21116;-67
2021/01/14 08:43:18;;;;;;;11.10;7.00;;;;;;;-2.90;100.00;99389.73;1769006;79;22802;-68
2021/01/14 08:45:49;;;;;;;10.70;6.55;;;;;;;-2.89;100.00;99390.54;1776169;79;21653;-71
2021/01/14 08:48:28;;;;;;;11.33;7.95;;;;;;;-2.87;100.00;99388.70;1787451;79;21009;-70
2021/01/14 08:51:02;;;;;;;22.35;17.23;;;;;;;-2.85;100.00;99388.91;1770257;79;22435;-71
2021/01/14 08:53:37;;;;;;;14.40;8.68;;;;;;;-2.82;100.00;99375.92;1774166;79;21209;-71
2021/01/14 08:56:10;;;;;;;13.60;7.50;;;;;;;-2.74;100.00;99372.77;1771323;79;21190;-65
2021/01/14 08:58:42;;;;;;;;;;;;;;;-2.70;100.00;99372.41;1751913;79;22524;-71
2021/01/14 09:01:21;;;;;;;11.83;7.05;;;;;;;-2.64;100.00;99367.77;1715082;83;20114;-73
2021/01/14 09:03:52;;;;;;;16.07;8.80;;;;;;;-2.61;100.00;99376.00;1768752;79;21116;-69
2021/01/14 09:06:39;;;;;;;16.67;10.00;;;;;;;-2.58;100.00;99376.20;1787580;79;22135;-73
2021/01/14 09:09:10;;;;;;;12.93;8.45;;;;;;;-2.56;100.00;99377.72;1783573;79;21635;-73
2021/01/14 09:11:39;;;;;;;;;;;;;;;-2.55;100.00;99378.05;1788349;79;21177;-74
2021/01/14 09:14:10;;;;;;;14.25;7.00;;;;;;;-2.54;100.00;99382.69;1784974;79;20135;-73
2021/01/14 09:16:40;;;;;;;13.75;8.48;;;;;;;-2.56;100.00;99379.45;1731438;80;21901;-73
2021/01/14 09:19:17;;;;;;;11.80;7.50;;;;;;;-2.55;100.00;99377.24;1735093;82;21212;-67
2021/01/14 09:21:47;;;;;;;12.28;8.30;;;;;;;-2.55;100.00;99377.24;1732480;82;21377;-73
2021/01/14 09:24:17;;;;;;;12.78;7.62;;;;;;;-2.53;100.00;99380.50;1794136;79;21532;-73
2021/01/14 09:26:50;;;;;;;14.05;8.40;;;;;;;-2.48;100.00;99379.19;1785337;79;21110;-73
2021/01/14 09:29:20;;;;;;;13.72;9.10;;;;;;;-2.45;100.00;99372.58;1789849;79;21165;-74
2021/01/14 09:31:48;;;;;;;12.23;7.83;;;;;;;-2.42;100.00;99363.88;1725019;80;21659;-72
2021/01/14 09:34:17;;;;;;;14.23;8.30;;;;;;;-2.40;100.00;99356.09;1725946;82;22756;-69
2021/01/14 09:36:47;;;;;;;14.20;8.40;;;;;;;-2.36;100.00;99360.81;1733680;81;20971;-66
2021/01/14 09:39:16;;;;;;;15.05;8.73;;;;;;;-2.30;100.00;99362.89;1745509;81;22498;-71
2021/01/14 09:41:45;;;;;;;14.13;8.80;;;;;;;-2.21;100.00;99364.69;1743084;81;21193;-69
2021/01/14 09:44:15;;;;;;;16.93;10.98;;;;;;;-2.12;100.00;99356.78;1746248;81;21118;-69
2021/01/14 09:46:45;;;;;;;14.93;9.33;;;;;;;-2.08;100.00;99356.06;1743016;81;22105;-67
2021/01/14 09:49:18;;;;;;;15.00;9.38;;;;;;;-2.03;100.00;99354.74;1784847;79;21425;-68
2021/01/14 09:51:46;;;;;;;17.00;9.60;;;;;;;-1.98;100.00;99358.20;1725279;81;21557;-69
2021/01/14 09:54:15;;;;;;;15.15;9.65;;;;;;;-1.98;100.00;99356.92;1746450;81;21122;-70
2021/01/14 09:56:51;;;;;;;15.43;10.15;;;;;;;-1.98;100.00;99354.36;1752029;80;21137;-68
2021/01/14 09:59:43;;;;;;;17.20;10.30;;;;;;;-1.98;100.00;99348.78;1786487;79;21194;-69
2021/01/14 10:02:24;;;;;;;15.40;9.70;;;;;;;-1.96;100.00;99349.95;1784365;79;21152;-68
2021/01/14 10:05:03;;;;;;;14.27;8.77;;;;;;;-1.94;100.00;99346.80;1781529;79;21396;-69
2021/01/14 10:07:36;;;;;;;17.32;11.03;;;;;;;-1.90;100.00;99338.41;1724577;80;21358;-69
2021/01/14 10:10:07;;;;;;;19.00;10.78;;;;;;;-1.86;100.00;99344.41;1725888;82;21504;-68
2021/01/14 10:12:35;;;;;;;18.10;11.05;;;;;;;-1.84;100.00;99332.81;1707210;82;22049;-70
2021/01/14 10:15:10;;;;;;;18.98;12.30;;;;;;;-1.84;100.00;99333.62;1740543;81;21919;-69
2021/01/14 10:17:40;;;;;;;19.70;12.80;;;;;;;-1.84;100.00;99331.06;1727970;81;21030;-66
2021/01/14 10:20:12;;;;;;;18.65;11.35;;;;;;;-1.82;100.00;99330.48;1752359;80;21255;-67
2021/01/14 10:22:47;;;;;;;;;;;;;;;-1.81;100.00;99328.27;1750494;81;21066;-64
2021/01/14 10:25:15;;;;;;;21.07;12.82;;;;;;;-1.83;100.00;99319.91;1715494;82;21363;-67
2021/01/14 10:28:03;;;;;;;21.82;13.58;;;;;;;-1.87;100.00;99321.09;1722545;82;21182;-68
2021/01/14 10:30:34;;;;;;;22.10;15.53;;;;;;;-1.91;100.00;99325.31;1715532;82;21670;-69
2021/01/14 10:33:03;;;;;;;20.90;11.95;;;;;;;-1.92;100.00;99331.36;1726467;82;21011;-64
2021/01/14 10:35:33;;;;;;;21.80;12.33;;;;;;;-1.91;100.00;99319.73;1731891;82;21200;-68
2021/01/14 10:38:06;;;;;;;22.40;14.23;;;;;;;-1.91;100.00;99321.01;1732155;82;21206;-66
2021/01/14 10:40:43;;;;;;;24.12;14.63;;;;;;;-1.88;100.00;99325.06;1732554;82;20981;-66
2021/01/14 10:43:15;;;;;;;29.00;16.30;;;;;;;-1.90;100.00;99321.34;1733544;82;21216;-66
2021/01/14 10:45:45;;;;;;;30.05;16.60;;;;;;;-1.90;100.00;99323.89;1733843;82;21264;-66
2021/01/14 10:48:17;;;;;;;29.50;15.03;;;;;;;-1.87;100.00;99326.67;1745066;80;21240;-66
2021/01/14 10:50:54;;;;;;;19.52;12.37;;;;;;;-1.89;100.00;99335.75;1748386;80;21208;-68
2021/01/14 10:53:28;;;;;;;19.65;12.63;;;;;;;-1.90;100.00;99338.41;1714389;81;21631;-67
2021/01/14 10:56:01;;;;;;;20.57;11.88;;;;;;;-1.92;100.00;99341.11;1734824;81;21028;-67
2021/01/14 10:58:30;;;;;;;17.30;10.93;;;;;;;-1.94;100.00;99337.05;1745278;81;21595;-70
2021/01/14 11:00:59;;;;;;;23.75;13.13;;;;;;;-1.94;100.00;99335.77;1729672;81;21213;-70
2021/01/14 11:03:30;;;;;;;20.90;12.47;;;;;;;-1.94;100.00;99330.66;1723498;81;21210;-69
2021/01/14 11:05:58;;;;;;;19.07;11.78;;;;;;;-1.94;100.00;99317.42;1757784;80;21222;-68
2021/01/14 11:08:41;;;;;;;23.55;13.35;;;;;;;-1.93;100.00;99313.95;1761810;80;20948;-68
2021/01/14 11:11:11;;;;;;;21.02;12.93;;;;;;;-1.88;100.00;99320.77;1759153;80;21022;-68
2021/01/14 11:13:47;;;;;;;21.95;13.03;;;;;;;-1.84;100.00;99307.27;1766715;80;21550;-69
2021/01/14 11:16:21;;;;;;;21.75;13.08;;;;;;;-1.82;100.00;99307.49;1732252;81;22633;-69
2021/01/14 11:18:51;;;;;;;23.65;12.90;;;;;;;-1.85;100.00;99314.13;1800757;78;21054;-69
2021/01/14 11:21:34;;;;;;;17.70;11.33;;;;;;;-1.88;100.00;99318.20;1798737;79;21003;-69
2021/01/14 11:24:06;;;;;;;22.00;12.63;;;;;;;-1.89;100.00;99321.70;1798586;79;21104;-70
2021/01/14 11:26:35;;;;;;;28.10;14.68;;;;;;;-1.88;100.00;99317.40;1798024;78;21185;-70
2021/01/14 11:29:03;;;;;;;22.73;13.60;;;;;;;-1.84;100.00;99323.41;1796593;79;22372;-71
2021/01/14 11:31:32;;;;;;;20.43;13.10;;;;;;;-1.78;100.00;99324.19;1795840;78;21069;-68
2021/01/14 11:34:02;;;;;;;22.73;13.80;;;;;;;-1.76;100.00;99328.68;1798815;79;21203;-69
2021/01/14 11:36:32;;;;;;;21.07;13.10;;;;;;;-1.74;100.00;99326.02;1793668;79;21129;-67
2021/01/14 11:39:01;;;;;;;21.97;12.60;;;;;;;-1.71;100.00;99315.52;1797825;79;21061;-66
2021/01/14 11:41:30;;;;;;;23.95;12.88;;;;;;;-1.69;100.00;99319.24;1802631;78;21160;-68
2021/01/14 11:43:59;;;;;;;25.95;14.30;;;;;;;-1.68;100.00;99316.55;1795111;78;21161;-70
2021/01/14 11:46:27;;;;;;;26.70;16.77;;;;;;;-1.67;100.00;99315.60;1741060;82;21576;-70
2021/01/14 11:48:55;;;;;;;31.25;16.95;;;;;;;-1.66;100.00;99319.80;1736198;82;20970;-68
2021/01/14 11:51:23;;;;;;;25.80;14.70;;;;;;;-1.62;100.00;99317.80;1795671;79;21566;-70
2021/01/14 11:53:52;;;;;;;26.87;15.15;;;;;;;-1.60;100.00;99324.38;1801189;79;21272;-66
2021/01/14 11:56:20;;;;;;;22.25;14.23;;;;;;;-1.57;100.00;99319.02;1796409;79;21183;-71
2021/01/14 11:58:49;;;;;;;22.07;12.63;;;;;;;-1.55;100.00;99320.98;1796127;79;21204;-66
2021/01/14 12:01:23;;;;;;;20.90;12.35;;;;;;;-1.53;100.00;99320.38;1798380;79;21053;-68
2021/01/14 12:03:51;;;;;;;17.57;11.63;;;;;;;-1.55;100.00;99321.46;1800580;79;21614;-69
2021/01/14 12:06:19;;;;;;;16.42;10.72;;;;;;;-1.60;100.00;99322.30;1800338;78;22145;-67
2021/01/14 12:08:47;;;;;;;27.93;13.18;;;;;;;-1.62;100.00;99318.60;1800540;79;21555;-64
2021/01/14 12:11:19;;;;;;;24.95;14.45;;;;;;;-1.60;100.00;99325.66;1800996;78;21432;-66
2021/01/14 12:13:48;;;;;;;22.67;13.80;;;;;;;-1.61;100.00;99322.77;1801929;78;21129;-67
2021/01/14 12:16:16;;;;;;;18.15;11.57;;;;;;;-1.61;100.00;99313.83;1798349;79;21597;-67
2021/01/14 12:18:44;;;;;;;22.77;13.20;;;;;;;-1.60;100.00;99316.71;1797244;78;22558;-63
2021/01/14 12:21:16;;;;;;;18.23;10.60;;;;;;;-1.59;100.00;99314.52;1739374;81;21693;-67
2021/01/14 12:23:46;;;;;;;36.17;19.02;;;;;;;-1.56;100.00;99323.18;1756476;80;21523;-67
2021/01/14 12:26:14;;;;;;;21.65;13.68;;;;;;;-1.54;100.00;99335.85;1800978;78;21124;-67
2021/01/14 12:28:43;;;;;;;23.35;14.65;;;;;;;-1.54;100.00;99334.58;1799771;78;21144;-64
2021/01/14 12:31:11;;;;;;;24.15;13.55;;;;;;;-1.58;100.00;99338.33;1796998;78;22635;-65
2021/01/14 12:33:40;;;;;;;31.60;18.57;;;;;;;-1.64;100.00;99346.48;1800180;78;21294;-65
2021/01/14 12:36:09;;;;;;;22.67;12.98;;;;;;;-1.70;100.00;99352.93;1797884;78;20982;-66
2021/01/14 12:38:38;;;;;;;21.75;13.68;;;;;;;-1.78;100.00;99357.39;1798632;78;21109;-66
2021/01/14 12:41:08;;;;;;;28.47;17.42;;;;;;;-1.84;100.00;99362.99;1800206;78;21626;-65
2021/01/14 12:43:37;;;;;;;29.60;16.05;;;;;;;-1.92;100.00;99361.53;1800800;78;21214;-66
2021/01/14 12:46:06;;;;;;;33.08;17.52;;;;;;;-1.99;100.00;99359.95;1802430;78;21207;-67
2021/01/14 12:48:36;;;;;;;36.35;17.75;;;;;;;-2.04;100.00;99354.41;1798483;78;21577;-66
2021/01/14 12:51:05;;;;;;;25.82;15.08;;;;;;;-2.08;100.00;99348.41;1799260;78;21156;-67
2021/01/14 12:53:35;;;;;;;47.15;25.85;;;;;;;-2.11;100.00;99353.75;1801578;78;21200;-67
2021/01/14 12:56:05;;;;;;;40.92;22.10;;;;;;;-2.15;100.00;99351.11;1799769;78;21235;-68
2021/01/14 12:58:34;;;;;;;31.60;18.07;;;;;;;-2.19;100.00;99340.80;1798661;78;21129;-67
2021/01/14 13:01:04;;;;;;;23.45;14.87;;;;;;;-2.23;100.00;99356.36;1801599;78;21196;-67
2021/01/14 13:03:36;;;;;;;54.93;26.90;;;;;;;-2.27;100.00;99352.44;1789900;78;21658;-68
2021/01/14 13:06:06;;;;;;;29.40;16.87;;;;;;;-2.29;100.00;99359.39;1796083;78;21568;-69
2021/01/14 13:08:34;;;;;;;37.00;21.65;;;;;;;-2.30;100.00;99362.89;1789306;79;21196;-63
2021/01/14 13:11:03;;;;;;;32.55;18.32;;;;;;;-2.31;100.00;99358.73;1789901;79;21042;-66
2021/01/14 13:13:32;;;;;;;39.13;19.37;;;;;;;-2.30;100.00;99352.68;1778035;79;21207;-67
2021/01/14 13:16:02;;;;;;;32.67;18.00;;;;;;;-2.28;100.00;99357.18;1785855;79;21202;-68
2021/01/14 13:18:30;;;;;;;29.85;17.55;;;;;;;-2.29;100.00;99363.23;1738847;80;21125;-68
2021/01/14 13:20:59;;;;;;;27.05;17.00;;;;;;;-2.31;100.00;99370.21;1743250;80;21162;-69
2021/01/14 13:23:27;;;;;;;33.20;19.50;;;;;;;-2.34;100.00;99370.45;1749695;80;21183;-66
2021/01/14 13:25:55;;;;;;;23.32;14.90;;;;;;;-2.35;100.00;99368.84;1739131;80;21218;-68
2021/01/14 13:28:24;;;;;;;27.22;15.30;;;;;;;-2.36;100.00;99360.01;1731942;80;21103;-67
2021/01/14 13:30:52;;;;;;;24.92;14.50;;;;;;;-2.38;100.00;99364.44;1724547;82;21133;-66
2021/01/14 13:33:21;;;;;;;27.55;17.60;;;;;;;-2.39;100.00;99367.44;1727806;81;21643;-68
2021/01/14 13:35:58;;;;;;;34.10;20.77;;;;;;;-2.40;100.00;99381.61;1729947;82;21129;-68
2021/01/14 13:38:26;;;;;;;26.17;16.07;;;;;;;-2.42;100.00;99379.19;1726832;81;21084;-68
2021/01/14 13:40:55;;;;;;;35.43;20.20;;;;;;;-2.41;100.00;99379.52;1732393;82;21138;-65
2021/01/14 13:43:23;;;;;;;32.40;18.77;;;;;;;-2.41;100.00;99379.99;1726560;81;21484;-68
2021/01/14 13:46:00;;;;;;;43.45;23.42;;;;;;;-2.41;100.00;99376.97;1735744;81;21388;-69
2021/01/14 13:48:28;;;;;;;37.75;20.92;;;;;;;-2.41;100.00;99383.82;1726688;81;21501;-68
2021/01/14 13:50:57;;;;;;;32.93;20.60;;;;;;;-2.40;100.00;99382.88;1788048;79;21058;-69
2021/01/14 13:53:26;;;;;;;40.88;26.60;;;;;;;-2.41;100.00;99370.59;1782527;79;21125;-69
2021/01/14 13:55:55;;;;;;;38.10;25.80;;;;;;;-2.39;100.00;99373.81;1789231;79;21204;-66
2021/01/14 13:58:25;;;;;;;35.50;20.52;;;;;;;-2.37;100.00;99369.88;1778345;79;21204;-67
2021/01/14 14:00:54;;;;;;;39.15;20.50;;;;;;;-2.37;100.00;99373.24;1786370;79;21134;-67
2021/01/14 14:03:22;;;;;;;25.17;15.63;;;;;;;-2.36;100.00;99374.85;1790780;79;21135;-67
2021/01/14 14:05:53;;;;;;;30.15;19.42;;;;;;;-2.35;100.00;99386.70;1744617;80;21237;-66
2021/01/14 14:08:24;;;;;;;26.65;16.42;;;;;;;-2.37;100.00;99388.55;1764004;80;21559;-64
2021/01/14 14:10:52;;;;;;;28.52;17.57;;;;;;;-2.38;100.00;99400.17;1763321;80;21348;-69
2021/01/14 14:13:22;;;;;;;26.17;16.57;;;;;;;-2.40;100.00;99407.94;1766941;80;21176;-69
2021/01/14 14:15:51;;;;;;;21.07;13.98;;;;;;;-2.41;100.00;99413.98;1798969;79;21204;-68
2021/01/14 14:18:19;;;;;;;47.98;28.50;;;;;;;-2.44;100.00;99412.94;1802192;79;21176;-68
2021/01/14 14:20:48;;;;;;;111.03;52.60;;;;;;;-2.46;100.00;99415.63;1804491;78;21177;-68
2021/01/14 14:23:17;;;;;;;97.97;47.50;;;;;;;-2.46;100.00;99418.64;1803275;78;22193;-68
2021/01/14 14:25:46;;;;;;;153.53;67.35;;;;;;;-2.46;100.00;99422.47;1806571;78;21504;-69
2021/01/14 14:28:14;;;;;;;73.57;38.25;;;;;;;-2.46;100.00;99422.47;1795668;78;21239;-68
2021/01/14 14:30:43;;;;;;;62.03;32.38;;;;;;;-2.47;100.00;99428.48;1794264;79;21235;-68
2021/01/14 14:33:11;;;;;;;39.92;24.98;;;;;;;-2.49;100.00;99429.89;1796556;78;21658;-67
2021/01/14 14:35:41;;;;;;;69.07;36.77;;;;;;;-2.51;100.00;99426.62;1733106;82;21423;-67
2021/01/14 14:38:09;;;;;;;52.70;31.90;;;;;;;-2.51;100.00;99426.62;1737894;81;21189;-65
2021/01/14 14:40:39;;;;;;;52.15;28.65;;;;;;;-2.51;100.00;99433.02;1730219;82;21210;-69
2021/01/14 14:43:07;;;;;;;63.68;34.60;;;;;;;-2.49;100.00;99436.73;1764505;80;21209;-66
2021/01/14 14:45:36;;;;;;;41.88;24.52;;;;;;;-2.50;100.00;99434.66;1799194;79;21145;-68
2021/01/14 14:48:26;;;;;;;80.38;38.73;;;;;;;-2.49;100.00;99433.72;1804527;78;21048;-66
2021/01/14 14:50:54;;;;;;;81.70;38.10;;;;;;;-2.50;100.00;99435.09;1720369;82;21038;-69
2021/01/14 14:53:22;;;;;;;98.72;48.58;;;;;;;-2.50;100.00;99436.37;1729219;82;21204;-69
2021/01/14 14:55:50;;;;;;;103.60;48.95;;;;;;;-2.49;100.00;99434.19;1720726;82;21655;-70
2021/01/14 14:58:19;;;;;;;105.03;51.95;;;;;;;-2.47;100.00;99434.86;1721716;82;22424;-70
2021/01/14 15:00:49;;;;;;;42.55;25.32;;;;;;;-2.45;100.00;99431.27;1718954;82;21419;-68
2021/01/14 15:03:17;;;;;;;39.98;24.65;;;;;;;-2.41;100.00;99430.56;1721053;82;21172;-71
2021/01/14 15:05:47;;;;;;;34.92;22.02;;;;;;;-2.37;100.00;99436.23;1721656;82;21564;-69
2021/01/14 15:08:16;;;;;;;36.17;23.32;;;;;;;-2.38;100.00;99435.44;1726386;82;21604;-70
2021/01/14 15:10:45;;;;;;;37.85;22.25;;;;;;;-2.39;100.00;99442.72;1724199;82;21137;-71
2021/01/14 15:13:14;;;;;;;36.30;20.90;;;;;;;-2.39;100.00;99436.81;1718571;82;22489;-70
2021/01/14 15:15:42;;;;;;;34.50;21.27;;;;;;;-2.38;100.00;99432.88;1723305;82;21137;-70
2021/01/14 15:18:12;;;;;;;36.98;22.82;;;;;;;-2.36;100.00;99427.64;1718462;82;21213;-69
2021/01/14 15:20:40;;;;;;;37.28;22.45;;;;;;;-2.36;100.00;99424.63;1721659;82;21024;-70
2021/01/14 15:23:09;;;;;;;37.60;22.73;;;;;;;-2.32;100.00;99430.30;1717212;82;21166;-70
2021/01/14 15:25:38;;;;;;;34.95;22.22;;;;;;;-2.30;100.00;99427.98;1721509;82;21422;-69
2021/01/14 15:28:07;;;;;;;42.03;25.27;;;;;;;-2.28;100.00;99427.38;1676618;84;21234;-70
2021/01/14 15:30:36;;;;;;;37.33;23.57;;;;;;;-2.28;100.00;99428.65;1720215;82;21146;-71
2021/01/14 15:33:05;;;;;;;40.28;25.00;;;;;;;-2.30;100.00;99433.55;1718784;82;21598;-69
2021/01/14 15:35:38;;;;;;;39.30;25.55;;;;;;;-2.34;100.00;99434.26;1720178;82;21568;-66
2021/01/14 15:38:04;;;;;;;37.93;24.15;;;;;;;-2.37;100.00;99431.94;1719763;82;21568;-70
2021/01/14 15:40:32;;;;;;;36.85;24.60;;;;;;;-2.35;100.00;99438.19;1718184;82;21451;-69
2021/01/14 15:43:02;;;;;;;40.88;27.60;;;;;;;-2.35;100.00;99439.47;1718497;82;21597;-68
2021/01/14 15:45:30;;;;;;;39.98;26.50;;;;;;;-2.33;100.00;99447.36;1717360;82;21217;-69
2021/01/14 15:47:59;;;;;;;44.27;26.00;;;;;;;-2.32;100.00;99445.14;1718830;82;21284;-71